Time;durP1;ratioP1;P1;durP2;ratioP2;P2;SDS_P1;SDS_P2;PMS_P1;PMS_P2;Temp;Humidity;BMP_temperature;BMP_pressure;BME280_temperature;BME280_humidity;BME280_pressure;Samples;Min_cycle;Max_cycle;Signal;HPM_P1;HPM_P2
2021/08/30 00:00:14;;;;;;;13.52;2.50;;;;;;;;;;5076555;28;20086;-42
2021/08/30 00:02:40;;;;;;;10.90;1.95;;;;;;;;;;5072575;28;20556;-41
2021/08/30 00:05:06;;;;;;;2.72;1.65;;;;;;;;;;5073681;28;20451;-42
2021/08/30 00:07:31;;;;;;;5.40;2.38;;;;;;;;;;5074748;28;20023;-42
2021/08/30 00:09:56;;;;;;;2.88;2.13;;;;;;;;;;5070858;28;20061;-40
2021/08/30 00:12:22;;;;;;;5.38;1.15;;;;;;;;;;5075907;28;20380;-41
2021/08/30 00:14:47;;;;;;;4.25;2.10;;;;;;;;;;5073127;28;20496;-42
2021/08/30 00:17:12;;;;;;;3.95;2.63;;;;;;;;;;5070172;28;20028;-42
2021/08/30 00:19:37;;;;;;;4.00;2.30;;;;;;;;;;5071286;28;20028;-41
2021/08/30 00:22:04;;;;;;;4.15;1.42;;;;;;;;;;5070414;28;20488;-41
2021/08/30 00:24:29;;;;;;;5.75;2.17;;;;;;;;;;5083011;28;20177;-41
2021/08/30 00:26:55;;;;;;;3.55;1.42;;;;;;;;;;5074506;28;20472;-43
2021/08/30 00:29:26;;;;;;;5.43;1.70;;;;;;;;;;5077875;28;20035;-42
2021/08/30 00:31:52;;;;;;;6.45;1.48;;;;;;;;;;5078340;28;20348;-42
2021/08/30 00:34:17;;;;;;;3.47;2.05;;;;;;;;;;5077550;28;20017;-40
2021/08/30 00:36:43;;;;;;;3.33;1.95;;;;;;;;;;5067870;28;20345;-39
2021/08/30 00:39:08;;;;;;;3.17;2.15;;;;;;;;;;5075776;28;20551;-40
2021/08/30 00:41:33;;;;;;;3.88;1.50;;;;;;;;;;5081160;28;20516;-41
2021/08/30 00:43:59;;;;;;;2.45;1.55;;;;;;;;;;5079627;28;20020;-42
2021/08/30 00:46:24;;;;;;;8.70;1.95;;;;;;;;;;5079237;28;20063;-41
2021/08/30 00:48:49;;;;;;;3.22;1.65;;;;;;;;;;5077960;28;20063;-42
2021/08/30 00:51:15;;;;;;;3.15;1.55;;;;;;;;;;5075148;28;20515;-42
2021/08/30 00:53:42;;;;;;;2.85;1.45;;;;;;;;;;5079557;28;20376;-41
2021/08/30 00:56:08;;;;;;;3.00;2.35;;;;;;;;;;5077657;28;20028;-41
2021/08/30 00:58:33;;;;;;;3.83;1.48;;;;;;;;;;5078678;28;20021;-41
2021/08/30 01:00:58;;;;;;;5.03;1.45;;;;;;;;;;5093173;28;20028;-40
2021/08/30 01:03:23;;;;;;;2.38;1.17;;;;;;;;;;5076461;28;20011;-41
2021/08/30 01:05:54;;;;;;;2.33;1.52;;;;;;;;;;5075274;28;20044;-42
2021/08/30 01:08:30;;;;;;;6.72;2.20;;;;;;;;;;5077760;28;20019;-41
2021/08/30 01:10:57;;;;;;;5.20;1.60;;;;;;;;;;5076135;28;20500;-41
2021/08/30 01:13:30;;;;;;;10.05;1.77;;;;;;;;;;5078037;28;20111;-42
2021/08/30 01:15:55;;;;;;;6.18;2.22;;;;;;;;;;5079269;28;20095;-42
2021/08/30 01:18:23;;;;;;;10.05;2.72;;;;;;;;;;5075853;28;20115;-42
2021/08/30 01:21:07;;;;;;;3.63;1.65;;;;;;;;;;5072234;28;20456;-42
2021/08/30 01:23:36;;;;;;;4.63;1.55;;;;;;;;;;5076134;28;20025;-40
2021/08/30 01:26:02;;;;;;;2.65;1.88;;;;;;;;;;5071112;28;20021;-40
2021/08/30 01:28:32;;;;;;;8.43;2.15;;;;;;;;;;5075996;28;20012;-40
2021/08/30 01:30:58;;;;;;;4.55;2.83;;;;;;;;;;5073520;28;20043;-40
2021/08/30 01:33:24;;;;;;;3.22;1.60;;;;;;;;;;5075351;28;20032;-40
2021/08/30 01:35:50;;;;;;;3.97;1.65;;;;;;;;;;5074884;28;20089;-40
2021/08/30 01:38:15;;;;;;;3.40;2.10;;;;;;;;;;5078435;28;20490;-41
2021/08/30 01:40:41;;;;;;;2.05;1.00;;;;;;;;;;5080040;28;20027;-41
2021/08/30 01:43:07;;;;;;;2.75;1.95;;;;;;;;;;5072860;28;20103;-40
2021/08/30 01:45:33;;;;;;;6.88;1.83;;;;;;;;;;5076725;28;20463;-40
2021/08/30 01:48:03;;;;;;;2.67;1.27;;;;;;;;;;5077755;28;20032;-40
2021/08/30 01:50:29;;;;;;;2.75;1.77;;;;;;;;;;5077829;28;20020;-39
2021/08/30 01:52:56;;;;;;;6.65;2.53;;;;;;;;;;5077353;28;20037;-39
2021/08/30 01:55:37;;;;;;;4.53;1.85;;;;;;;;;;5072974;28;20028;-41
2021/08/30 02:00:50;;;;;;;4.78;1.98;;;;;;;;;;5075154;28;20059;-40
2021/08/30 02:03:15;;;;;;;9.00;3.13;;;;;;;;;;5077373;28;20090;-41
2021/08/30 02:05:41;;;;;;;3.42;1.17;;;;;;;;;;5068014;28;20040;-40
2021/08/30 02:08:07;;;;;;;4.50;1.65;;;;;;;;;;5070845;28;20040;-40
2021/08/30 02:10:32;;;;;;;3.95;1.38;;;;;;;;;;5071188;28;20175;-39
2021/08/30 02:12:57;;;;;;;3.33;1.48;;;;;;;;;;5072825;28;20036;-41
2021/08/30 02:15:23;;;;;;;6.88;2.47;;;;;;;;;;5073720;28;20032;-39
2021/08/30 02:17:50;;;;;;;2.90;1.30;;;;;;;;;;5077520;28;20028;-41
2021/08/30 02:20:18;;;;;;;4.30;2.45;;;;;;;;;;5075846;28;20028;-41
2021/08/30 02:22:44;;;;;;;3.85;1.70;;;;;;;;;;5073167;28;20028;-42
2021/08/30 02:25:12;;;;;;;5.00;2.50;;;;;;;;;;5074031;28;20052;-40
2021/08/30 02:27:43;;;;;;;4.30;1.13;;;;;;;;;;5080742;28;20031;-41
2021/08/30 02:30:12;;;;;;;5.63;1.55;;;;;;;;;;5077944;28;20012;-41
2021/08/30 02:32:37;;;;;;;6.53;1.85;;;;;;;;;;5071799;28;20013;-42
2021/08/30 02:35:05;;;;;;;2.17;1.38;;;;;;;;;;5075715;28;20089;-41
2021/08/30 02:37:32;;;;;;;6.25;2.33;;;;;;;;;;5076744;28;20032;-41
2021/08/30 02:39:59;;;;;;;6.97;1.60;;;;;;;;;;5074079;28;20154;-41
2021/08/30 02:42:25;;;;;;;3.92;1.27;;;;;;;;;;5075961;28;20024;-41
2021/08/30 02:44:50;;;;;;;5.22;1.98;;;;;;;;;;5076302;28;20027;-41
2021/08/30 02:47:18;;;;;;;2.50;1.67;;;;;;;;;;5073667;28;20489;-42
2021/08/30 02:49:44;;;;;;;2.40;1.75;;;;;;;;;;5074706;28;20024;-41
2021/08/30 02:52:10;;;;;;;11.80;2.15;;;;;;;;;;5070440;28;20099;-41
2021/08/30 02:54:36;;;;;;;1.92;0.90;;;;;;;;;;5080216;28;20037;-42
2021/08/30 02:57:03;;;;;;;11.43;2.65;;;;;;;;;;5075037;28;20119;-41
2021/08/30 02:59:29;;;;;;;1.77;1.23;;;;;;;;;;5075721;28;20235;-41
2021/08/30 03:01:55;;;;;;;3.92;2.03;;;;;;;;;;5075941;28;20502;-42
2021/08/30 03:04:21;;;;;;;5.43;1.30;;;;;;;;;;5075674;28;20040;-41
2021/08/30 03:06:47;;;;;;;1.45;0.93;;;;;;;;;;5077372;28;20543;-40
2021/08/30 03:09:12;;;;;;;12.50;2.15;;;;;;;;;;5069082;28;20606;-39
2021/08/30 03:11:39;;;;;;;4.38;2.00;;;;;;;;;;5069470;28;20024;-40
2021/08/30 03:14:05;;;;;;;3.40;1.98;;;;;;;;;;5076226;28;20015;-41
2021/08/30 03:16:31;;;;;;;2.55;1.55;;;;;;;;;;5076996;28;20024;-38
2021/08/30 03:18:58;;;;;;;5.20;2.50;;;;;;;;;;5072729;28;20108;-41
2021/08/30 03:21:24;;;;;;;3.33;1.40;;;;;;;;;;5070427;28;20093;-40
2021/08/30 03:23:50;;;;;;;4.60;1.98;;;;;;;;;;5073252;28;20024;-40
2021/08/30 03:26:16;;;;;;;3.47;1.58;;;;;;;;;;5075023;28;20043;-42
2021/08/30 03:28:41;;;;;;;3.28;2.03;;;;;;;;;;5074687;28;20472;-41
2021/08/30 03:31:06;;;;;;;4.53;2.45;;;;;;;;;;5073820;28;20039;-40
2021/08/30 03:33:32;;;;;;;3.10;1.40;;;;;;;;;;5072372;28;20016;-41
2021/08/30 03:35:58;;;;;;;10.07;2.72;;;;;;;;;;5073415;28;20025;-41
2021/08/30 03:38:24;;;;;;;3.50;1.38;;;;;;;;;;5072421;28;20015;-41
2021/08/30 03:40:50;;;;;;;3.55;1.90;;;;;;;;;;5075895;28;20029;-41
2021/08/30 03:43:16;;;;;;;4.35;2.10;;;;;;;;;;5076489;28;20518;-41
2021/08/30 03:45:42;;;;;;;2.53;1.45;;;;;;;;;;5069348;28;20024;-41
2021/08/30 03:48:08;;;;;;;3.25;1.08;;;;;;;;;;5074297;28;20111;-41
2021/08/30 03:50:33;;;;;;;2.70;1.30;;;;;;;;;;5073204;28;20547;-41
2021/08/30 03:53:00;;;;;;;3.13;1.73;;;;;;;;;;5074579;28;20028;-41
2021/08/30 03:55:25;;;;;;;2.50;1.02;;;;;;;;;;5075247;28;20047;-41
2021/08/30 03:57:52;;;;;;;4.03;1.98;;;;;;;;;;5074738;28;20108;-42
2021/08/30 04:00:18;;;;;;;3.28;1.55;;;;;;;;;;5076992;28;20074;-41
2021/08/30 04:02:44;;;;;;;2.85;1.42;;;;;;;;;;5074545;28;20571;-42
2021/08/30 04:05:11;;;;;;;2.28;1.70;;;;;;;;;;5077215;28;20520;-41
2021/08/30 04:07:36;;;;;;;8.02;3.85;;;;;;;;;;5077194;28;20024;-41
2021/08/30 04:10:02;;;;;;;3.28;2.03;;;;;;;;;;5077741;28;20020;-39
2021/08/30 04:12:28;;;;;;;4.03;1.85;;;;;;;;;;5075825;28;20105;-41
2021/08/30 04:14:54;;;;;;;5.00;1.83;;;;;;;;;;5077115;28;20023;-42
2021/08/30 04:17:19;;;;;;;2.55;1.52;;;;;;;;;;5076642;28;20051;-41
2021/08/30 04:19:44;;;;;;;2.00;1.27;;;;;;;;;;5068790;28;20060;-41
2021/08/30 04:22:10;;;;;;;4.20;1.00;;;;;;;;;;5079094;28;20078;-40
2021/08/30 04:24:35;;;;;;;5.30;2.28;;;;;;;;;;5077153;28;20077;-41
2021/08/30 04:27:01;;;;;;;15.27;2.75;;;;;;;;;;5078381;28;20020;-43
2021/08/30 04:29:27;;;;;;;11.35;1.98;;;;;;;;;;5077068;28;20079;-40
2021/08/30 04:31:53;;;;;;;1.98;1.50;;;;;;;;;;5068087;28;20103;-40
2021/08/30 04:34:22;;;;;;;4.95;1.73;;;;;;;;;;5075516;28;20108;-37
2021/08/30 04:36:47;;;;;;;6.32;1.95;;;;;;;;;;5075958;28;20029;-38
2021/08/30 04:39:13;;;;;;;3.83;1.67;;;;;;;;;;5071100;28;20023;-39
2021/08/30 04:41:38;;;;;;;1.73;1.25;;;;;;;;;;5078945;28;20533;-40
2021/08/30 04:44:04;;;;;;;8.45;2.13;;;;;;;;;;5073073;28;20024;-41
2021/08/30 04:46:29;;;;;;;3.33;2.03;;;;;;;;;;5077660;28;20107;-40
2021/08/30 04:48:54;;;;;;;8.43;2.38;;;;;;;;;;5078278;28;20056;-41
2021/08/30 04:51:20;;;;;;;3.85;1.65;;;;;;;;;;5075887;28;20044;-41
2021/08/30 04:53:45;;;;;;;4.25;1.63;;;;;;;;;;5073768;28;20574;-39
2021/08/30 04:56:11;;;;;;;2.83;1.60;;;;;;;;;;5074894;28;20510;-40
2021/08/30 04:58:36;;;;;;;9.18;3.17;;;;;;;;;;5078137;28;20372;-42
2021/08/30 05:01:01;;;;;;;2.25;1.60;;;;;;;;;;5078398;28;20028;-41
2021/08/30 05:03:27;;;;;;;3.03;1.50;;;;;;;;;;5081023;28;20062;-42
2021/08/30 05:05:52;;;;;;;4.13;2.20;;;;;;;;;;5074188;28;20044;-43
2021/08/30 05:08:18;;;;;;;3.45;2.20;;;;;;;;;;5081318;28;20104;-42
2021/08/30 05:10:43;;;;;;;5.72;1.20;;;;;;;;;;5076468;28;20024;-42
2021/08/30 05:13:09;;;;;;;4.63;2.50;;;;;;;;;;5073847;28;20016;-42
2021/08/30 05:15:34;;;;;;;6.20;1.67;;;;;;;;;;5075562;28;20027;-42
2021/08/30 05:17:59;;;;;;;4.70;2.60;;;;;;;;;;5074973;28;20020;-40
2021/08/30 05:20:25;;;;;;;4.72;1.85;;;;;;;;;;5073461;28;20055;-42
2021/08/30 05:22:50;;;;;;;5.80;1.77;;;;;;;;;;5075954;28;20024;-42
2021/08/30 05:25:15;;;;;;;2.85;1.60;;;;;;;;;;5075897;28;20021;-42
2021/08/30 05:27:41;;;;;;;3.33;1.75;;;;;;;;;;5068468;28;20035;-41
2021/08/30 05:30:07;;;;;;;5.07;2.75;;;;;;;;;;5068027;28;20171;-43
2021/08/30 05:32:32;;;;;;;8.38;3.60;;;;;;;;;;5072617;28;20050;-42
2021/08/30 05:34:58;;;;;;;7.43;1.92;;;;;;;;;;5069451;28;20740;-40
2021/08/30 05:37:23;;;;;;;7.00;2.47;;;;;;;;;;5070027;28;20028;-42
2021/08/30 05:39:48;;;;;;;7.57;3.03;;;;;;;;;;5073233;28;20416;-42
2021/08/30 05:42:14;;;;;;;3.90;2.72;;;;;;;;;;5075889;28;20434;-42
2021/08/30 05:44:39;;;;;;;3.67;2.75;;;;;;;;;;5072408;28;20557;-42
2021/08/30 05:47:04;;;;;;;6.38;1.70;;;;;;;;;;5067457;28;20818;-42
2021/08/30 05:49:30;;;;;;;9.73;2.45;;;;;;;;;;5072888;28;20027;-42
2021/08/30 05:51:55;;;;;;;6.75;2.50;;;;;;;;;;5075588;28;20020;-43
2021/08/30 05:54:20;;;;;;;5.03;2.38;;;;;;;;;;5073749;28;20043;-42
2021/08/30 05:56:46;;;;;;;10.85;3.00;;;;;;;;;;5068714;28;20392;-42
2021/08/30 05:59:11;;;;;;;4.57;2.65;;;;;;;;;;5072933;28;20392;-42
2021/08/30 06:01:37;;;;;;;10.45;3.85;;;;;;;;;;5070656;28;20475;-42
2021/08/30 06:04:03;;;;;;;12.70;2.95;;;;;;;;;;5070735;28;20404;-39
2021/08/30 06:06:29;;;;;;;1.75;1.15;;;;;;;;;;5077102;28;20028;-42
2021/08/30 06:08:54;;;;;;;4.38;1.88;;;;;;;;;;5073133;28;20029;-39
2021/08/30 06:11:19;;;;;;;4.88;2.75;;;;;;;;;;5068887;28;20028;-39
2021/08/30 06:13:45;;;;;;;8.02;3.47;;;;;;;;;;5071578;28;20275;-41
2021/08/30 06:16:10;;;;;;;20.60;13.85;;;;;;;;;;5072860;28;20040;-40
2021/08/30 06:18:35;;;;;;;21.92;9.75;;;;;;;;;;5072283;28;20524;-40
2021/08/30 06:21:00;;;;;;;11.25;6.15;;;;;;;;;;5074224;28;20088;-41
2021/08/30 06:23:27;;;;;;;4.75;2.72;;;;;;;;;;5073255;28;20021;-41
2021/08/30 06:25:53;;;;;;;3.85;2.67;;;;;;;;;;5072623;28;20182;-41
2021/08/30 06:28:18;;;;;;;7.38;5.00;;;;;;;;;;5074200;28;20016;-41
2021/08/30 06:30:43;;;;;;;13.10;6.10;;;;;;;;;;5073513;28;20020;-40
2021/08/30 06:33:09;;;;;;;7.13;3.10;;;;;;;;;;5070037;28;20036;-41
2021/08/30 06:35:34;;;;;;;5.57;4.32;;;;;;;;;;5073905;28;20024;-41
2021/08/30 06:37:59;;;;;;;4.28;2.50;;;;;;;;;;5070163;28;20109;-42
2021/08/30 06:40:25;;;;;;;5.82;2.53;;;;;;;;;;5075333;28;20039;-41
2021/08/30 06:42:52;;;;;;;14.35;3.30;;;;;;;;;;5074761;28;20027;-41
2021/08/30 06:45:18;;;;;;;5.05;3.25;;;;;;;;;;5069356;28;20209;-41
2021/08/30 06:47:44;;;;;;;7.70;3.42;;;;;;;;;;5068122;28;20103;-41
2021/08/30 06:50:09;;;;;;;13.32;3.72;;;;;;;;;;5074862;28;20182;-41
2021/08/30 06:52:35;;;;;;;5.10;3.63;;;;;;;;;;5072145;28;20032;-41
2021/08/30 06:55:01;;;;;;;6.88;4.93;;;;;;;;;;5073146;28;20031;-41
2021/08/30 06:57:26;;;;;;;8.45;5.07;;;;;;;;;;5073737;28;20380;-41
2021/08/30 06:59:51;;;;;;;6.13;2.65;;;;;;;;;;5072324;28;20115;-41
2021/08/30 07:02:17;;;;;;;6.63;3.22;;;;;;;;;;5068348;28;20024;-41
2021/08/30 07:04:42;;;;;;;8.30;2.92;;;;;;;;;;5070028;28;20141;-41
2021/08/30 07:07:07;;;;;;;7.25;3.58;;;;;;;;;;5073206;28;20095;-41
2021/08/30 07:09:32;;;;;;;6.75;2.60;;;;;;;;;;5073481;28;20344;-41
2021/08/30 07:11:58;;;;;;;10.18;3.42;;;;;;;;;;5074720;28;20527;-41
2021/08/30 07:14:23;;;;;;;6.00;2.47;;;;;;;;;;5076416;28;20476;-40
2021/08/30 07:16:48;;;;;;;4.38;1.50;;;;;;;;;;5074874;28;20020;-41
2021/08/30 07:19:14;;;;;;;4.15;3.50;;;;;;;;;;5076746;28;20051;-41
2021/08/30 07:21:39;;;;;;;7.20;2.65;;;;;;;;;;5073769;28;20405;-41
2021/08/30 07:24:04;;;;;;;2.03;1.40;;;;;;;;;;5072096;28;20016;-41
2021/08/30 07:26:30;;;;;;;3.85;2.05;;;;;;;;;;5075850;28;20466;-41
2021/08/30 07:28:55;;;;;;;4.38;2.03;;;;;;;;;;5070968;28;20082;-41
2021/08/30 07:31:20;;;;;;;7.07;1.80;;;;;;;;;;5075829;28;20051;-42
2021/08/30 07:33:46;;;;;;;5.07;2.08;;;;;;;;;;5070521;28;20030;-41
2021/08/30 07:36:11;;;;;;;6.00;1.52;;;;;;;;;;5072262;28;20020;-35
2021/08/30 07:38:37;;;;;;;4.32;2.20;;;;;;;;;;5074646;28;20480;-58
2021/08/30 07:41:02;;;;;;;3.33;2.05;;;;;;;;;;5072588;28;20024;-59
2021/08/30 07:43:27;;;;;;;4.95;2.95;;;;;;;;;;5072969;28;20073;-58
2021/08/30 07:45:53;;;;;;;8.23;2.53;;;;;;;;;;5073081;28;20028;-59
2021/08/30 07:48:18;;;;;;;3.75;1.83;;;;;;;;;;5072957;28;20446;-58
2021/08/30 07:50:43;;;;;;;8.07;2.83;;;;;;;;;;5072412;28;20024;-58
2021/08/30 07:53:09;;;;;;;5.93;2.33;;;;;;;;;;5072937;28;20392;-58
2021/08/30 07:55:36;;;;;;;7.82;1.75;;;;;;;;;;5075257;28;20103;-58
2021/08/30 07:58:02;;;;;;;2.80;1.73;;;;;;;;;;5072401;28;20017;-58
2021/08/30 08:00:27;;;;;;;5.07;2.72;;;;;;;;;;5074898;28;20024;-59
2021/08/30 08:02:52;;;;;;;2.45;1.75;;;;;;;;;;5071000;28;20024;-58
2021/08/30 08:05:18;;;;;;;4.07;2.03;;;;;;;;;;5070303;28;20061;-58
2021/08/30 08:07:44;;;;;;;5.05;2.42;;;;;;;;;;5074006;28;20024;-58
2021/08/30 08:10:09;;;;;;;10.93;2.45;;;;;;;;;;5076746;28;20114;-62
2021/08/30 08:12:35;;;;;;;3.40;2.20;;;;;;;;;;5071467;28;20396;-60
2021/08/30 08:15:00;;;;;;;2.58;1.25;;;;;;;;;;5074724;28;20027;-59
2021/08/30 08:17:25;;;;;;;5.30;2.08;;;;;;;;;;5068857;28;20484;-59
2021/08/30 08:19:51;;;;;;;2.97;2.10;;;;;;;;;;5071148;28;20067;-59
2021/08/30 08:22:16;;;;;;;3.85;1.98;;;;;;;;;;5074467;28;20028;-59
2021/08/30 08:24:41;;;;;;;5.10;1.80;;;;;;;;;;5073091;28;20056;-54
2021/08/30 08:27:07;;;;;;;5.18;2.10;;;;;;;;;;5067655;28;20054;-51
2021/08/30 08:29:32;;;;;;;2.03;1.38;;;;;;;;;;5076165;28;20492;-50
2021/08/30 08:31:57;;;;;;;6.45;2.63;;;;;;;;;;5067517;28;20036;-57
2021/08/30 08:34:22;;;;;;;3.10;1.95;;;;;;;;;;5073295;28;20509;-57
2021/08/30 08:36:48;;;;;;;2.85;1.75;;;;;;;;;;5072284;28;20510;-53
2021/08/30 08:39:13;;;;;;;3.47;2.13;;;;;;;;;;5074286;28;20078;-65
2021/08/30 08:41:39;;;;;;;4.22;1.83;;;;;;;;;;5072043;28;20052;-65
2021/08/30 08:44:06;;;;;;;10.10;1.90;;;;;;;;;;5073036;28;20381;-65
2021/08/30 08:46:32;;;;;;;6.63;1.60;;;;;;;;;;5079258;28;20021;-64
2021/08/30 08:48:57;;;;;;;4.43;1.65;;;;;;;;;;5077532;28;20013;-65
2021/08/30 08:51:23;;;;;;;5.72;2.65;;;;;;;;;;5078635;28;20031;-64
2021/08/30 08:53:48;;;;;;;6.13;2.83;;;;;;;;;;5075534;28;20486;-65
2021/08/30 08:56:14;;;;;;;7.05;3.63;;;;;;;;;;5074332;28;20119;-64
2021/08/30 08:58:42;;;;;;;7.03;1.90;;;;;;;;;;5077985;28;20020;-65
2021/08/30 09:01:12;;;;;;;13.15;3.22;;;;;;;;;;5076866;28;20039;-54
2021/08/30 09:03:44;;;;;;;14.23;2.50;;;;;;;;;;5080985;28;20048;-59
2021/08/30 09:06:09;;;;;;;9.00;2.20;;;;;;;;;;5091874;28;20071;-60
2021/08/30 09:08:42;;;;;;;14.57;2.92;;;;;;;;;;5076873;28;20060;-59
2021/08/30 09:11:19;;;;;;;5.43;1.58;;;;;;;;;;5076454;28;20558;-42
2021/08/30 09:13:49;;;;;;;13.75;2.92;;;;;;;;;;5078440;28;20028;-62
2021/08/30 09:16:17;;;;;;;5.68;2.30;;;;;;;;;;5074888;28;20021;-65
2021/08/30 09:18:42;;;;;;;11.07;3.97;;;;;;;;;;5077774;28;20026;-64
2021/08/30 09:21:11;;;;;;;12.93;3.67;;;;;;;;;;5075608;28;20111;-50
2021/08/30 09:23:38;;;;;;;6.97;4.25;;;;;;;;;;5075044;28;20012;-49
2021/08/30 09:26:04;;;;;;;8.40;3.33;;;;;;;;;;5077597;28;20048;-47
2021/08/30 09:28:33;;;;;;;5.25;3.00;;;;;;;;;;5072165;28;20024;-41
2021/08/30 09:30:58;;;;;;;7.97;5.65;;;;;;;;;;5071052;28;20481;-45
2021/08/30 09:33:24;;;;;;;10.57;5.07;;;;;;;;;;5074735;28;20044;-47
2021/08/30 09:35:59;;;;;;;14.15;4.93;;;;;;;;;;5073940;28;20067;-49
2021/08/30 09:38:24;;;;;;;7.97;4.18;;;;;;;;;;5075000;28;20518;-45
2021/08/30 09:40:49;;;;;;;4.65;2.70;;;;;;;;;;5072892;28;20024;-48
2021/08/30 09:43:21;;;;;;;5.57;3.65;;;;;;;;;;5077551;28;20016;-49
2021/08/30 09:45:47;;;;;;;4.30;2.05;;;;;;;;;;5073449;28;20016;-46
2021/08/30 09:48:22;;;;;;;3.70;2.25;;;;;;;;;;5079697;28;20421;-45
2021/08/30 09:50:47;;;;;;;4.50;3.30;;;;;;;;;;5072367;28;20499;-45
2021/08/30 09:53:12;;;;;;;7.03;2.67;;;;;;;;;;5067158;28;20024;-45
2021/08/30 09:55:38;;;;;;;2.08;1.88;;;;;;;;;;5077953;28;20149;-45
2021/08/30 09:58:05;;;;;;;6.43;3.33;;;;;;;;;;5074938;28;20455;-46
2021/08/30 10:00:31;;;;;;;2.85;1.30;;;;;;;;;;5075332;28;20035;-43
2021/08/30 10:03:00;;;;;;;18.77;2.85;;;;;;;;;;5077091;28;20020;-44
2021/08/30 10:05:26;;;;;;;4.55;2.75;;;;;;;;;;5080383;28;20083;-44
2021/08/30 10:07:53;;;;;;;7.50;3.55;;;;;;;;;;5079647;28;20095;-47
2021/08/30 10:10:20;;;;;;;6.15;1.98;;;;;;;;;;5078151;28;20020;-45
2021/08/30 10:12:45;;;;;;;3.10;2.05;;;;;;;;;;5076960;28;20631;-48
2021/08/30 10:15:11;;;;;;;7.72;3.42;;;;;;;;;;5078491;28;20028;-44
2021/08/30 10:17:44;;;;;;;7.25;4.32;;;;;;;;;;5074826;28;20020;-41
2021/08/30 10:20:14;;;;;;;7.25;3.03;;;;;;;;;;5072907;28;20602;-47
2021/08/30 10:22:40;;;;;;;3.70;2.47;;;;;;;;;;5069943;28;20749;-46
2021/08/30 10:25:13;;;;;;;3.10;2.40;;;;;;;;;;5072011;28;20030;-45
2021/08/30 10:27:39;;;;;;;3.08;2.45;;;;;;;;;;5074039;28;20016;-44
2021/08/30 10:30:09;;;;;;;4.22;2.53;;;;;;;;;;5074692;28;20085;-48
2021/08/30 10:32:38;;;;;;;3.53;1.92;;;;;;;;;;5073446;28;20758;-46
2021/08/30 10:35:14;;;;;;;2.50;1.50;;;;;;;;;;5073892;28;20039;-45
2021/08/30 10:37:46;;;;;;;2.38;1.73;;;;;;;;;;5074198;28;20024;-47
2021/08/30 10:40:16;;;;;;;9.73;2.40;;;;;;;;;;5073050;28;20387;-44
2021/08/30 10:42:41;;;;;;;3.67;1.60;;;;;;;;;;5069537;28;20025;-46
2021/08/30 10:45:07;;;;;;;2.15;1.55;;;;;;;;;;5054108;28;20461;-44
2021/08/30 10:47:33;;;;;;;2.42;1.80;;;;;;;;;;5072647;28;20020;-46
2021/08/30 10:49:58;;;;;;;5.43;2.75;;;;;;;;;;5072799;28;20021;-46
2021/08/30 10:52:24;;;;;;;29.73;6.80;;;;;;;;;;5072179;28;20077;-42
2021/08/30 10:54:57;;;;;;;4.13;2.03;;;;;;;;;;5072195;28;20029;-46
2021/08/30 10:57:35;;;;;;;16.33;3.25;;;;;;;;;;5071879;28;20019;-46
2021/08/30 11:00:01;;;;;;;6.32;2.92;;;;;;;;;;5075192;28;20052;-43
2021/08/30 11:02:37;;;;;;;4.15;2.08;;;;;;;;;;5070846;28;20028;-45
2021/08/30 11:05:03;;;;;;;22.15;5.03;;;;;;;;;;5070991;28;20044;-46
2021/08/30 11:07:28;;;;;;;6.60;2.67;;;;;;;;;;5075853;28;20066;-45
2021/08/30 11:09:54;;;;;;;9.25;1.85;;;;;;;;;;5071000;28;20081;-46
2021/08/30 11:12:19;;;;;;;33.58;4.03;;;;;;;;;;5072908;28;20032;-45
2021/08/30 11:14:53;;;;;;;8.90;3.38;;;;;;;;;;5074553;28;20035;-46
2021/08/30 11:17:24;;;;;;;2.30;1.23;;;;;;;;;;5068293;28;20027;-46
2021/08/30 11:19:52;;;;;;;3.67;1.00;;;;;;;;;;5069694;28;20028;-46
2021/08/30 11:22:18;;;;;;;2.50;1.63;;;;;;;;;;5071978;28;20020;-47
2021/08/30 11:24:43;;;;;;;1.90;0.73;;;;;;;;;;5072514;28;20377;-47
2021/08/30 11:27:10;;;;;;;2.85;1.85;;;;;;;;;;5072497;28;20031;-50
2021/08/30 11:29:41;;;;;;;4.53;2.10;;;;;;;;;;5078147;28;20483;-43
2021/08/30 11:32:06;;;;;;;1.85;0.93;;;;;;;;;;5067854;28;20032;-42
2021/08/30 11:34:32;;;;;;;0.90;0.52;;;;;;;;;;5073448;28;20035;-43
2021/08/30 11:36:59;;;;;;;2.28;1.05;;;;;;;;;;5071837;28;20091;-42
2021/08/30 11:39:25;;;;;;;2.05;0.82;;;;;;;;;;5068579;28;20099;-48
2021/08/30 11:41:51;;;;;;;1.20;0.60;;;;;;;;;;5068494;28;20551;-48
2021/08/30 11:44:17;;;;;;;1.05;0.80;;;;;;;;;;5073576;28;20016;-47
2021/08/30 11:46:47;;;;;;;3.30;0.70;;;;;;;;;;5072385;28;20027;-50
2021/08/30 11:49:13;;;;;;;21.67;1.50;;;;;;;;;;5076194;28;20020;-48
2021/08/30 11:51:39;;;;;;;1.08;0.70;;;;;;;;;;5072780;28;20043;-47
2021/08/30 11:54:08;;;;;;;0.60;0.28;;;;;;;;;;5076449;28;20024;-48
2021/08/30 11:56:34;;;;;;;1.20;0.65;;;;;;;;;;5071475;28;20020;-42
2021/08/30 11:59:00;;;;;;;1.05;0.50;;;;;;;;;;5076019;28;20028;-42
2021/08/30 12:01:25;;;;;;;0.43;0.32;;;;;;;;;;5067348;28;20365;-43
2021/08/30 12:03:51;;;;;;;1.60;0.77;;;;;;;;;;5073218;28;20035;-45
2021/08/30 12:06:17;;;;;;;1.88;1.30;;;;;;;;;;5066388;28;20028;-43
2021/08/30 12:08:55;;;;;;;2.05;0.93;;;;;;;;;;5069255;28;20540;-43
2021/08/30 12:11:20;;;;;;;1.77;0.70;;;;;;;;;;5074811;28;20024;-44
2021/08/30 12:13:58;;;;;;;1.90;1.13;;;;;;;;;;5071334;28;20069;-44
2021/08/30 12:16:25;;;;;;;0.95;0.28;;;;;;;;;;5070598;28;20027;-45
2021/08/30 12:18:52;;;;;;;13.63;0.70;;;;;;;;;;5089556;28;20050;-42
2021/08/30 12:21:38;;;;;;;1.92;0.40;;;;;;;;;;5076755;28;20091;-44
2021/08/30 12:24:04;;;;;;;1.45;0.82;;;;;;;;;;5080388;28;20020;-43
2021/08/30 12:26:29;;;;;;;1.17;0.25;;;;;;;;;;5077159;28;20030;-43
2021/08/30 12:28:55;;;;;;;4.03;0.45;;;;;;;;;;5078961;28;20666;-46
2021/08/30 12:31:24;;;;;;;5.82;0.60;;;;;;;;;;5076746;28;20493;-43
2021/08/30 12:33:59;;;;;;;2.08;0.75;;;;;;;;;;5078327;28;20031;-43
2021/08/30 12:36:24;;;;;;;3.65;1.27;;;;;;;;;;5074573;28;20784;-45
2021/08/30 12:38:50;;;;;;;2.25;1.67;;;;;;;;;;5077060;28;20017;-44
2021/08/30 12:41:15;;;;;;;1.90;1.50;;;;;;;;;;5073571;28;20028;-45
2021/08/30 12:43:45;;;;;;;2.85;1.17;;;;;;;;;;5076319;28;20043;-43
2021/08/30 12:46:10;;;;;;;2.08;0.82;;;;;;;;;;5077042;28;20017;-45
2021/08/30 12:48:36;;;;;;;2.42;1.88;;;;;;;;;;5078110;28;20024;-47
2021/08/30 12:51:01;;;;;;;2.72;1.55;;;;;;;;;;5072992;28;20020;-45
2021/08/30 12:53:27;;;;;;;2.55;1.40;;;;;;;;;;5074872;28;20032;-44
2021/08/30 12:55:52;;;;;;;2.60;1.38;;;;;;;;;;5074503;28;20071;-47
2021/08/30 12:58:17;;;;;;;3.40;1.60;;;;;;;;;;5075225;28;20034;-45
2021/08/30 13:00:43;;;;;;;2.88;1.90;;;;;;;;;;5072160;28;20086;-44
2021/08/30 13:03:08;;;;;;;12.38;3.50;;;;;;;;;;5074814;28;20027;-47
2021/08/30 13:05:39;;;;;;;3.33;2.05;;;;;;;;;;5075854;28;20052;-43
2021/08/30 13:08:04;;;;;;;5.15;2.90;;;;;;;;;;5075300;28;20032;-42
2021/08/30 13:10:30;;;;;;;2.42;1.63;;;;;;;;;;5074106;28;20047;-43
2021/08/30 13:12:55;;;;;;;2.78;2.17;;;;;;;;;;5077140;28;20047;-44
2021/08/30 13:15:21;;;;;;;3.65;2.38;;;;;;;;;;5077375;28;20024;-48
2021/08/30 13:17:47;;;;;;;4.28;2.25;;;;;;;;;;5076849;28;20025;-49
2021/08/30 13:20:13;;;;;;;1.80;1.33;;;;;;;;;;5071709;28;20020;-47
2021/08/30 13:22:39;;;;;;;2.15;1.48;;;;;;;;;;5076404;28;20560;-46
2021/08/30 13:25:05;;;;;;;2.25;1.65;;;;;;;;;;5079733;28;20698;-44
2021/08/30 13:27:32;;;;;;;3.97;2.22;;;;;;;;;;5076228;28;20558;-46
2021/08/30 13:29:57;;;;;;;4.05;2.38;;;;;;;;;;5074053;28;20021;-46
2021/08/30 13:32:23;;;;;;;10.73;8.55;;;;;;;;;;5073823;28;20023;-44
2021/08/30 13:34:48;;;;;;;3.90;2.17;;;;;;;;;;5074227;28;20019;-47
2021/08/30 13:37:13;;;;;;;3.35;1.65;;;;;;;;;;5074668;28;20017;-46
2021/08/30 13:39:39;;;;;;;4.40;2.38;;;;;;;;;;5074859;28;20531;-43
2021/08/30 13:42:04;;;;;;;3.03;2.33;;;;;;;;;;5074511;28;20024;-44
2021/08/30 13:44:30;;;;;;;3.33;2.45;;;;;;;;;;5078849;28;20073;-44
2021/08/30 13:46:55;;;;;;;4.40;2.75;;;;;;;;;;5077997;28;20053;-47
2021/08/30 13:49:21;;;;;;;2.28;1.63;;;;;;;;;;5074560;28;20090;-45
2021/08/30 13:51:46;;;;;;;4.68;2.00;;;;;;;;;;5078237;28;20029;-45
2021/08/30 13:54:11;;;;;;;5.63;1.98;;;;;;;;;;5073746;28;20016;-46
2021/08/30 13:56:36;;;;;;;7.50;3.35;;;;;;;;;;5077529;28;20161;-46
2021/08/30 13:59:02;;;;;;;7.18;2.38;;;;;;;;;;5071889;28;20384;-47
2021/08/30 14:01:28;;;;;;;6.18;5.20;;;;;;;;;;5078485;28;20102;-48
2021/08/30 14:03:53;;;;;;;2.78;2.35;;;;;;;;;;5077637;28;20577;-46
2021/08/30 14:06:19;;;;;;;3.28;2.13;;;;;;;;;;5072015;28;20024;-43
2021/08/30 14:08:44;;;;;;;3.40;1.80;;;;;;;;;;5070187;28;20040;-43
2021/08/30 14:11:09;;;;;;;2.95;1.98;;;;;;;;;;5075622;28;20525;-45
2021/08/30 14:13:34;;;;;;;9.63;3.15;;;;;;;;;;5073135;28;20556;-49
2021/08/30 14:16:00;;;;;;;3.65;2.20;;;;;;;;;;5069729;28;20119;-44
2021/08/30 14:18:25;;;;;;;2.83;1.83;;;;;;;;;;5073740;28;20024;-45
2021/08/30 14:20:50;;;;;;;5.68;3.38;;;;;;;;;;5074871;28;20024;-45
2021/08/30 14:23:18;;;;;;;14.15;3.85;;;;;;;;;;5073800;28;20020;-48
2021/08/30 14:25:43;;;;;;;4.43;2.38;;;;;;;;;;5073265;28;20674;-48
2021/08/30 14:28:09;;;;;;;20.73;3.25;;;;;;;;;;5086750;28;20115;-46
2021/08/30 14:30:34;;;;;;;4.30;2.95;;;;;;;;;;5076086;28;20091;-47
2021/08/30 14:32:59;;;;;;;6.30;2.40;;;;;;;;;;5074839;28;20017;-45
2021/08/30 14:35:24;;;;;;;2.67;2.13;;;;;;;;;;5070797;28;20051;-45
2021/08/30 14:37:50;;;;;;;3.90;2.20;;;;;;;;;;5075949;28;20073;-47